sensor_id;sensor_type;location;lat;lon;timestamp;temperature;humidity
65854;DHT22;52627;48.838;2.402;2023-03-24T00:01:21;14.92;73.12
65854;DHT22;52627;48.838;2.402;2023-03-24T00:03:49;14.96;73.12
65854;DHT22;52627;48.838;2.402;2023-03-24T00:06:18;14.99;73.18
65854;DHT22;52627;48.838;2.402;2023-03-24T00:08:48;15.03;73.10
65854;DHT22;52627;48.838;2.402;2023-03-24T00:11:16;15.06;73.08
65854;DHT22;52627;48.838;2.402;2023-03-24T00:13:45;15.10;73.01
65854;DHT22;52627;48.838;2.402;2023-03-24T00:16:16;15.12;73.00
65854;DHT22;52627;48.838;2.402;2023-03-24T00:18:45;15.15;72.96
65854;DHT22;52627;48.838;2.402;2023-03-24T00:21:19;15.18;72.90
65854;DHT22;52627;48.838;2.402;2023-03-24T00:23:53;15.20;72.88
65854;DHT22;52627;48.838;2.402;2023-03-24T00:26:24;15.23;72.82
65854;DHT22;52627;48.838;2.402;2023-03-24T00:28:52;15.24;72.80
65854;DHT22;52627;48.838;2.402;2023-03-24T00:31:20;15.27;72.72
65854;DHT22;52627;48.838;2.402;2023-03-24T00:33:48;15.27;72.70
65854;DHT22;52627;48.838;2.402;2023-03-24T00:36:18;15.29;72.64
65854;DHT22;52627;48.838;2.402;2023-03-24T00:38:47;15.31;72.60
65854;DHT22;52627;48.838;2.402;2023-03-24T00:41:15;15.31;72.59
65854;DHT22;52627;48.838;2.402;2023-03-24T00:43:46;15.33;72.60
65854;DHT22;52627;48.838;2.402;2023-03-24T00:46:16;15.33;72.57
65854;DHT22;52627;48.838;2.402;2023-03-24T00:51:31;15.33;72.50
65854;DHT22;52627;48.838;2.402;2023-03-24T00:54:08;15.33;72.52
65854;DHT22;52627;48.838;2.402;2023-03-24T00:56:39;15.34;72.46
65854;DHT22;52627;48.838;2.402;2023-03-24T00:59:07;15.33;72.41
65854;DHT22;52627;48.838;2.402;2023-03-24T01:01:36;15.34;72.40
65854;DHT22;52627;48.838;2.402;2023-03-24T01:04:07;15.34;72.40
65854;DHT22;52627;48.838;2.402;2023-03-24T01:06:35;15.35;72.40
65854;DHT22;52627;48.838;2.402;2023-03-24T01:09:04;15.35;72.41
65854;DHT22;52627;48.838;2.402;2023-03-24T01:11:37;15.35;72.40
65854;DHT22;52627;48.838;2.402;2023-03-24T01:14:07;15.35;72.40
65854;DHT22;52627;48.838;2.402;2023-03-24T01:16:36;15.35;72.37
65854;DHT22;52627;48.838;2.402;2023-03-24T01:19:04;15.34;72.31
65854;DHT22;52627;48.838;2.402;2023-03-24T01:21:32;15.35;72.31
65854;DHT22;52627;48.838;2.402;2023-03-24T01:24:03;15.34;72.30
65854;DHT22;52627;48.838;2.402;2023-03-24T01:26:32;15.33;72.28
65854;DHT22;52627;48.838;2.402;2023-03-24T01:28:59;15.32;72.21
65854;DHT22;52627;48.838;2.402;2023-03-24T01:31:27;15.32;72.20
65854;DHT22;52627;48.838;2.402;2023-03-24T01:33:54;15.30;72.20
65854;DHT22;52627;48.838;2.402;2023-03-24T01:36:22;15.30;72.10
65854;DHT22;52627;48.838;2.402;2023-03-24T01:38:50;15.29;72.10
65854;DHT22;52627;48.838;2.402;2023-03-24T01:41:18;15.29;72.10
65854;DHT22;52627;48.838;2.402;2023-03-24T01:43:46;15.29;72.04
65854;DHT22;52627;48.838;2.402;2023-03-24T01:46:17;15.29;72.00
65854;DHT22;52627;48.838;2.402;2023-03-24T01:51:30;15.28;72.00
65854;DHT22;52627;48.838;2.402;2023-03-24T01:54:04;15.28;72.02
65854;DHT22;52627;48.838;2.402;2023-03-24T01:56:56;15.27;72.00
65854;DHT22;52627;48.838;2.402;2023-03-24T01:59:29;15.26;71.97
65854;DHT22;52627;48.838;2.402;2023-03-24T02:02:00;15.26;71.92
65854;DHT22;52627;48.838;2.402;2023-03-24T02:04:30;15.25;71.93
65854;DHT22;52627;48.838;2.402;2023-03-24T02:10:01;15.22;71.83
65854;DHT22;52627;48.838;2.402;2023-03-24T02:12:33;15.21;71.80
65854;DHT22;52627;48.838;2.402;2023-03-24T02:15:01;15.19;71.80
65854;DHT22;52627;48.838;2.402;2023-03-24T02:17:42;15.19;71.81
65854;DHT22;52627;48.838;2.402;2023-03-24T02:26:46;15.15;71.90
65854;DHT22;52627;48.838;2.402;2023-03-24T02:32:30;15.12;72.06
65854;DHT22;52627;48.838;2.402;2023-03-24T02:40:52;15.07;72.24
65854;DHT22;52627;48.838;2.402;2023-03-24T02:43:39;15.06;72.28
65854;DHT22;52627;48.838;2.402;2023-03-24T02:46:17;15.03;72.37
65854;DHT22;52627;48.838;2.402;2023-03-24T02:48:59;15.01;72.47
65854;DHT22;52627;48.838;2.402;2023-03-24T02:51:38;14.99;72.44
65854;DHT22;52627;48.838;2.402;2023-03-24T02:59:44;14.94;72.40
65854;DHT22;52627;48.838;2.402;2023-03-24T03:02:27;14.92;72.40
65854;DHT22;52627;48.838;2.402;2023-03-24T03:05:04;14.90;72.38
65854;DHT22;52627;48.838;2.402;2023-03-24T03:07:40;14.87;72.38
65854;DHT22;52627;48.838;2.402;2023-03-24T03:10:18;14.85;72.32
65854;DHT22;52627;48.838;2.402;2023-03-24T03:12:51;14.82;72.30
65854;DHT22;52627;48.838;2.402;2023-03-24T03:15:25;14.79;72.30
65854;DHT22;52627;48.838;2.402;2023-03-24T03:21:03;14.75;72.30
65854;DHT22;52627;48.838;2.402;2023-03-24T03:23:38;14.72;72.29
65854;DHT22;52627;48.838;2.402;2023-03-24T03:26:12;14.71;72.30
65854;DHT22;52627;48.838;2.402;2023-03-24T03:28:45;14.68;72.23
65854;DHT22;52627;48.838;2.402;2023-03-24T03:31:25;14.65;72.20
65854;DHT22;52627;48.838;2.402;2023-03-24T03:34:02;14.63;72.20
65854;DHT22;52627;48.838;2.402;2023-03-24T03:36:55;14.60;72.20
65854;DHT22;52627;48.838;2.402;2023-03-24T03:39:32;14.58;72.12
65854;DHT22;52627;48.838;2.402;2023-03-24T03:42:06;14.55;71.97
65854;DHT22;52627;48.838;2.402;2023-03-24T03:44:34;14.52;71.91
65854;DHT22;52627;48.838;2.402;2023-03-24T03:47:01;14.49;71.82
65854;DHT22;52627;48.838;2.402;2023-03-24T03:49:29;14.48;71.72
65854;DHT22;52627;48.838;2.402;2023-03-24T03:51:57;14.45;71.60
65854;DHT22;52627;48.838;2.402;2023-03-24T03:54:24;14.42;71.50
65854;DHT22;52627;48.838;2.402;2023-03-24T03:56:55;14.41;71.42
65854;DHT22;52627;48.838;2.402;2023-03-24T03:59:33;14.40;71.26
65854;DHT22;52627;48.838;2.402;2023-03-24T04:02:46;14.37;71.19
65854;DHT22;52627;48.838;2.402;2023-03-24T04:05:23;14.33;71.01
65854;DHT22;52627;48.838;2.402;2023-03-24T04:13:38;14.23;70.65
65854;DHT22;52627;48.838;2.402;2023-03-24T04:16:32;14.21;70.54
65854;DHT22;52627;48.838;2.402;2023-03-24T04:30:43;14.11;70.08
65854;DHT22;52627;48.838;2.402;2023-03-24T04:33:17;14.11;69.97
65854;DHT22;52627;48.838;2.402;2023-03-24T04:36:09;14.10;69.89
65854;DHT22;52627;48.838;2.402;2023-03-24T04:39:17;14.07;69.69
65854;DHT22;52627;48.838;2.402;2023-03-24T04:41:51;14.05;69.56
65854;DHT22;52627;48.838;2.402;2023-03-24T04:44:23;14.02;69.36
65854;DHT22;52627;48.838;2.402;2023-03-24T04:46:52;14.01;69.31
65854;DHT22;52627;48.838;2.402;2023-03-24T04:49:23;14.00;69.30
65854;DHT22;52627;48.838;2.402;2023-03-24T04:51:51;13.99;69.20
65854;DHT22;52627;48.838;2.402;2023-03-24T04:54:20;13.99;69.19
65854;DHT22;52627;48.838;2.402;2023-03-24T04:56:49;13.96;69.12
65854;DHT22;52627;48.838;2.402;2023-03-24T04:59:19;13.95;69.16
65854;DHT22;52627;48.838;2.402;2023-03-24T05:01:47;13.93;69.20
65854;DHT22;52627;48.838;2.402;2023-03-24T05:04:18;13.91;69.20
65854;DHT22;52627;48.838;2.402;2023-03-24T05:06:51;13.89;69.28
65854;DHT22;52627;48.838;2.402;2023-03-24T05:09:20;13.87;69.30
65854;DHT22;52627;48.838;2.402;2023-03-24T05:11:50;13.87;69.33
65854;DHT22;52627;48.838;2.402;2023-03-24T05:14:18;13.88;69.40
65854;DHT22;52627;48.838;2.402;2023-03-24T05:16:45;13.86;69.41
65854;DHT22;52627;48.838;2.402;2023-03-24T05:19:13;13.83;69.49
65854;DHT22;52627;48.838;2.402;2023-03-24T05:21:41;13.80;69.50
65854;DHT22;52627;48.838;2.402;2023-03-24T05:24:09;13.78;69.55
65854;DHT22;52627;48.838;2.402;2023-03-24T05:26:38;13.74;69.63
65854;DHT22;52627;48.838;2.402;2023-03-24T05:29:05;13.69;69.67
65854;DHT22;52627;48.838;2.402;2023-03-24T05:31:33;13.65;69.71
65854;DHT22;52627;48.838;2.402;2023-03-24T05:34:00;13.60;69.71
65854;DHT22;52627;48.838;2.402;2023-03-24T05:36:28;13.56;69.70
65854;DHT22;52627;48.838;2.402;2023-03-24T05:38:55;13.54;69.70
65854;DHT22;52627;48.838;2.402;2023-03-24T05:41:23;13.52;69.63
65854;DHT22;52627;48.838;2.402;2023-03-24T05:43:50;13.48;69.60
65854;DHT22;52627;48.838;2.402;2023-03-24T05:46:18;13.45;69.59
65854;DHT22;52627;48.838;2.402;2023-03-24T05:48:45;13.42;69.58
65854;DHT22;52627;48.838;2.402;2023-03-24T05:51:13;13.40;69.56
65854;DHT22;52627;48.838;2.402;2023-03-24T05:53:40;13.38;69.60
65854;DHT22;52627;48.838;2.402;2023-03-24T05:56:08;13.35;69.60
65854;DHT22;52627;48.838;2.402;2023-03-24T05:58:38;13.32;69.64
65854;DHT22;52627;48.838;2.402;2023-03-24T06:01:06;13.31;69.70
65854;DHT22;52627;48.838;2.402;2023-03-24T06:03:36;13.28;69.73
65854;DHT22;52627;48.838;2.402;2023-03-24T06:06:05;13.26;69.77
65854;DHT22;52627;48.838;2.402;2023-03-24T06:08:35;13.23;69.78
65854;DHT22;52627;48.838;2.402;2023-03-24T06:11:04;13.19;69.80
65854;DHT22;52627;48.838;2.402;2023-03-24T06:13:32;13.18;69.80
65854;DHT22;52627;48.838;2.402;2023-03-24T06:15:59;13.16;69.81
65854;DHT22;52627;48.838;2.402;2023-03-24T06:18:29;13.13;69.80
65854;DHT22;52627;48.838;2.402;2023-03-24T06:20:58;13.10;69.78
65854;DHT22;52627;48.838;2.402;2023-03-24T06:23:26;13.08;69.78
65854;DHT22;52627;48.838;2.402;2023-03-24T06:25:54;13.07;69.80
65854;DHT22;52627;48.838;2.402;2023-03-24T06:28:25;13.04;69.73
65854;DHT22;52627;48.838;2.402;2023-03-24T06:30:56;13.02;69.78
65854;DHT22;52627;48.838;2.402;2023-03-24T06:33:25;13.01;69.80
65854;DHT22;52627;48.838;2.402;2023-03-24T06:35:52;13.02;69.77
65854;DHT22;52627;48.838;2.402;2023-03-24T06:38:20;13.01;69.76
65854;DHT22;52627;48.838;2.402;2023-03-24T06:40:48;13.01;69.72
65854;DHT22;52627;48.838;2.402;2023-03-24T06:43:15;13.01;69.72
65854;DHT22;52627;48.838;2.402;2023-03-24T06:45:43;13.01;69.72
65854;DHT22;52627;48.838;2.402;2023-03-24T06:48:12;12.99;69.70
65854;DHT22;52627;48.838;2.402;2023-03-24T06:50:42;12.99;69.74
65854;DHT22;52627;48.838;2.402;2023-03-24T06:53:10;13.02;69.78
65854;DHT22;52627;48.838;2.402;2023-03-24T06:55:37;13.09;69.76
65854;DHT22;52627;48.838;2.402;2023-03-24T06:58:04;13.12;69.70
65854;DHT22;52627;48.838;2.402;2023-03-24T07:00:32;13.15;69.70
65854;DHT22;52627;48.838;2.402;2023-03-24T07:03:01;13.19;69.70
65854;DHT22;52627;48.838;2.402;2023-03-24T07:05:29;13.25;69.67
65854;DHT22;52627;48.838;2.402;2023-03-24T07:07:56;13.29;69.60
65854;DHT22;52627;48.838;2.402;2023-03-24T07:10:26;13.34;69.56
65854;DHT22;52627;48.838;2.402;2023-03-24T07:12:54;13.37;69.47
65854;DHT22;52627;48.838;2.402;2023-03-24T07:15:22;13.41;69.40
65854;DHT22;52627;48.838;2.402;2023-03-24T07:17:50;13.46;69.34
65854;DHT22;52627;48.838;2.402;2023-03-24T07:20:18;13.48;69.10
65854;DHT22;52627;48.838;2.402;2023-03-24T07:22:46;13.51;69.09
65854;DHT22;52627;48.838;2.402;2023-03-24T07:25:14;13.54;69.00
65854;DHT22;52627;48.838;2.402;2023-03-24T07:27:46;13.57;68.93
65854;DHT22;52627;48.838;2.402;2023-03-24T07:30:13;13.61;68.89
65854;DHT22;52627;48.838;2.402;2023-03-24T07:32:41;13.67;68.84
65854;DHT22;52627;48.838;2.402;2023-03-24T07:35:10;13.74;68.75
65854;DHT22;52627;48.838;2.402;2023-03-24T07:37:38;13.81;68.66
65854;DHT22;52627;48.838;2.402;2023-03-24T07:40:07;13.83;68.52
65854;DHT22;52627;48.838;2.402;2023-03-24T07:42:38;13.84;68.27
65854;DHT22;52627;48.838;2.402;2023-03-24T07:45:08;13.83;68.27
65854;DHT22;52627;48.838;2.402;2023-03-24T07:47:41;13.88;68.13
65854;DHT22;52627;48.838;2.402;2023-03-24T07:50:11;13.92;67.98
65854;DHT22;52627;48.838;2.402;2023-03-24T07:52:41;13.94;67.76
65854;DHT22;52627;48.838;2.402;2023-03-24T07:55:13;14.01;67.67
65854;DHT22;52627;48.838;2.402;2023-03-24T07:57:42;14.13;67.50
65854;DHT22;52627;48.838;2.402;2023-03-24T08:00:13;14.21;67.25
65854;DHT22;52627;48.838;2.402;2023-03-24T08:02:45;14.33;67.16
65854;DHT22;52627;48.838;2.402;2023-03-24T08:05:18;14.44;66.78
65854;DHT22;52627;48.838;2.402;2023-03-24T08:07:49;14.58;66.71
65854;DHT22;52627;48.838;2.402;2023-03-24T08:10:23;14.86;66.54
65854;DHT22;52627;48.838;2.402;2023-03-24T08:12:55;15.03;66.11
65854;DHT22;52627;48.838;2.402;2023-03-24T08:15:25;15.33;65.61
65854;DHT22;52627;48.838;2.402;2023-03-24T08:17:53;15.55;65.21
65854;DHT22;52627;48.838;2.402;2023-03-24T08:20:22;15.70;64.87
65854;DHT22;52627;48.838;2.402;2023-03-24T08:22:53;16.10;64.44
65854;DHT22;52627;48.838;2.402;2023-03-24T08:25:22;16.31;63.81
65854;DHT22;52627;48.838;2.402;2023-03-24T08:27:52;16.43;63.09
65854;DHT22;52627;48.838;2.402;2023-03-24T08:30:21;16.43;62.44
65854;DHT22;52627;48.838;2.402;2023-03-24T08:32:52;16.34;62.47
65854;DHT22;52627;48.838;2.402;2023-03-24T08:35:23;16.26;62.17
65854;DHT22;52627;48.838;2.402;2023-03-24T08:37:54;16.24;62.11
65854;DHT22;52627;48.838;2.402;2023-03-24T08:40:22;16.27;61.73
65854;DHT22;52627;48.838;2.402;2023-03-24T08:42:51;16.33;61.32
65854;DHT22;52627;48.838;2.402;2023-03-24T08:45:23;16.76;61.08
65854;DHT22;52627;48.838;2.402;2023-03-24T08:47:53;16.97;60.49
65854;DHT22;52627;48.838;2.402;2023-03-24T08:50:25;17.22;59.89
65854;DHT22;52627;48.838;2.402;2023-03-24T08:52:55;17.29;59.62
65854;DHT22;52627;48.838;2.402;2023-03-24T08:55:23;17.26;59.25
65854;DHT22;52627;48.838;2.402;2023-03-24T08:57:51;17.63;59.23
65854;DHT22;52627;48.838;2.402;2023-03-24T09:00:19;17.71;58.96
65854;DHT22;52627;48.838;2.402;2023-03-24T09:02:49;17.65;58.71
65854;DHT22;52627;48.838;2.402;2023-03-24T09:05:20;17.50;58.39
65854;DHT22;52627;48.838;2.402;2023-03-24T09:08:07;17.35;58.43
65854;DHT22;52627;48.838;2.402;2023-03-24T09:10:34;17.18;57.99
65854;DHT22;52627;48.838;2.402;2023-03-24T09:13:02;16.98;57.57
65854;DHT22;52627;48.838;2.402;2023-03-24T09:15:30;16.90;57.43
65854;DHT22;52627;48.838;2.402;2023-03-24T09:17:59;16.81;57.22
65854;DHT22;52627;48.838;2.402;2023-03-24T09:20:28;16.76;57.18
65854;DHT22;52627;48.838;2.402;2023-03-24T09:22:55;16.68;56.81
65854;DHT22;52627;48.838;2.402;2023-03-24T09:25:22;16.64;56.67
65854;DHT22;52627;48.838;2.402;2023-03-24T09:27:50;16.89;56.54
65854;DHT22;52627;48.838;2.402;2023-03-24T09:30:17;16.95;56.22
65854;DHT22;52627;48.838;2.402;2023-03-24T09:32:45;16.88;56.12
65854;DHT22;52627;48.838;2.402;2023-03-24T09:35:13;16.82;56.07
65854;DHT22;52627;48.838;2.402;2023-03-24T09:37:41;16.85;55.91
65854;DHT22;52627;48.838;2.402;2023-03-24T09:43:18;16.83;55.51
65854;DHT22;52627;48.838;2.402;2023-03-24T09:45:57;16.69;54.99
65854;DHT22;52627;48.838;2.402;2023-03-24T09:48:36;16.59;54.90
65854;DHT22;52627;48.838;2.402;2023-03-24T09:51:23;16.55;54.92
65854;DHT22;52627;48.838;2.402;2023-03-24T09:56:35;16.65;54.72
65854;DHT22;52627;48.838;2.402;2023-03-24T09:59:13;16.73;54.56
65854;DHT22;52627;48.838;2.402;2023-03-24T10:01:48;17.06;54.35
65854;DHT22;52627;48.838;2.402;2023-03-24T10:04:17;17.14;53.84
65854;DHT22;52627;48.838;2.402;2023-03-24T10:06:48;17.10;53.55
65854;DHT22;52627;48.838;2.402;2023-03-24T10:09:24;17.05;53.68
65854;DHT22;52627;48.838;2.402;2023-03-24T10:14:44;16.92;53.55
65854;DHT22;52627;48.838;2.402;2023-03-24T10:20:14;16.85;53.30
65854;DHT22;52627;48.838;2.402;2023-03-24T10:23:26;17.37;53.15
65854;DHT22;52627;48.838;2.402;2023-03-24T10:29:34;17.68;52.64
65854;DHT22;52627;48.838;2.402;2023-03-24T10:32:24;18.10;52.38
65854;DHT22;52627;48.838;2.402;2023-03-24T10:34:56;18.23;52.51
65854;DHT22;52627;48.838;2.402;2023-03-24T10:37:35;18.42;52.51
65854;DHT22;52627;48.838;2.402;2023-03-24T10:40:10;18.36;51.72
65854;DHT22;52627;48.838;2.402;2023-03-24T10:42:43;18.25;51.42
65854;DHT22;52627;48.838;2.402;2023-03-24T10:45:18;18.05;51.19
65854;DHT22;52627;48.838;2.402;2023-03-24T10:48:00;17.96;51.37
65854;DHT22;52627;48.838;2.402;2023-03-24T10:50:30;18.04;51.20
65854;DHT22;52627;48.838;2.402;2023-03-24T10:52:59;18.05;50.99
65854;DHT22;52627;48.838;2.402;2023-03-24T10:55:36;18.06;50.79
65854;DHT22;52627;48.838;2.402;2023-03-24T10:58:11;18.03;50.55
65854;DHT22;52627;48.838;2.402;2023-03-24T11:00:45;18.05;50.63
65854;DHT22;52627;48.838;2.402;2023-03-24T11:03:15;18.23;50.37
65854;DHT22;52627;48.838;2.402;2023-03-24T11:06:03;18.47;49.72
65854;DHT22;52627;48.838;2.402;2023-03-24T11:08:33;18.66;49.47
65854;DHT22;52627;48.838;2.402;2023-03-24T11:13:58;18.45;49.35
65854;DHT22;52627;48.838;2.402;2023-03-24T11:16:29;18.26;49.04
65854;DHT22;52627;48.838;2.402;2023-03-24T11:19:06;18.15;48.85
65854;DHT22;52627;48.838;2.402;2023-03-24T11:21:55;18.02;48.86
65854;DHT22;52627;48.838;2.402;2023-03-24T11:24:27;18.03;48.67
65854;DHT22;52627;48.838;2.402;2023-03-24T11:26:59;18.34;48.58
65854;DHT22;52627;48.838;2.402;2023-03-24T11:29:29;18.73;48.29
65854;DHT22;52627;48.838;2.402;2023-03-24T11:31:59;18.89;47.98
65854;DHT22;52627;48.838;2.402;2023-03-24T11:34:33;18.94;47.67
65854;DHT22;52627;48.838;2.402;2023-03-24T11:37:18;19.02;47.75
65854;DHT22;52627;48.838;2.402;2023-03-24T11:42:47;18.89;47.63
65854;DHT22;52627;48.838;2.402;2023-03-24T11:51:07;19.19;47.08
65854;DHT22;52627;48.838;2.402;2023-03-24T11:53:45;18.98;46.92
65854;DHT22;52627;48.838;2.402;2023-03-24T12:04:40;18.05;46.97
65854;DHT22;52627;48.838;2.402;2023-03-24T12:13:50;17.68;47.54
65854;DHT22;52627;48.838;2.402;2023-03-24T12:19:24;17.32;47.98
65854;DHT22;52627;48.838;2.402;2023-03-24T12:22:28;17.10;47.95
65854;DHT22;52627;48.838;2.402;2023-03-24T12:40:32;15.71;53.78
65854;DHT22;52627;48.838;2.402;2023-03-24T12:43:09;15.75;54.15
65854;DHT22;52627;48.838;2.402;2023-03-24T12:45:47;15.96;54.61
65854;DHT22;52627;48.838;2.402;2023-03-24T12:51:40;16.05;55.53
65854;DHT22;52627;48.838;2.402;2023-03-24T12:54:36;16.24;56.14
65854;DHT22;52627;48.838;2.402;2023-03-24T12:57:37;16.48;56.77
65854;DHT22;52627;48.838;2.402;2023-03-24T13:00:23;16.54;56.89
65854;DHT22;52627;48.838;2.402;2023-03-24T13:02:57;16.53;57.04
65854;DHT22;52627;48.838;2.402;2023-03-24T13:05:31;16.53;57.38
65854;DHT22;52627;48.838;2.402;2023-03-24T13:08:02;16.56;57.60
65854;DHT22;52627;48.838;2.402;2023-03-24T13:10:39;16.59;57.72
65854;DHT22;52627;48.838;2.402;2023-03-24T13:13:30;16.55;57.87
65854;DHT22;52627;48.838;2.402;2023-03-24T13:16:20;16.46;58.14
65854;DHT22;52627;48.838;2.402;2023-03-24T13:18:51;16.42;58.38
65854;DHT22;52627;48.838;2.402;2023-03-24T13:21:22;16.38;58.31
65854;DHT22;52627;48.838;2.402;2023-03-24T13:26:35;16.25;58.51
65854;DHT22;52627;48.838;2.402;2023-03-24T13:29:40;16.10;59.15
65854;DHT22;52627;48.838;2.402;2023-03-24T13:32:36;15.77;61.99
65854;DHT22;52627;48.838;2.402;2023-03-24T13:38:18;14.84;64.28
65854;DHT22;52627;48.838;2.402;2023-03-24T13:41:10;14.47;64.77
65854;DHT22;52627;48.838;2.402;2023-03-24T13:44:06;14.59;65.26
65854;DHT22;52627;48.838;2.402;2023-03-24T13:46:46;14.92;65.52
65854;DHT22;52627;48.838;2.402;2023-03-24T13:49:39;14.84;65.23
65854;DHT22;52627;48.838;2.402;2023-03-24T13:52:29;14.73;65.48
65854;DHT22;52627;48.838;2.402;2023-03-24T13:55:07;14.71;65.58
65854;DHT22;52627;48.838;2.402;2023-03-24T13:57:40;14.77;65.82
65854;DHT22;52627;48.838;2.402;2023-03-24T14:03:38;15.05;65.80
65854;DHT22;52627;48.838;2.402;2023-03-24T14:06:10;15.16;65.65
65854;DHT22;52627;48.838;2.402;2023-03-24T14:08:53;15.29;65.51
65854;DHT22;52627;48.838;2.402;2023-03-24T14:14:34;15.65;65.04
65854;DHT22;52627;48.838;2.402;2023-03-24T14:22:14;15.86;63.94
65854;DHT22;52627;48.838;2.402;2023-03-24T14:24:59;15.86;63.85
65854;DHT22;52627;48.838;2.402;2023-03-24T14:27:44;15.84;63.76
65854;DHT22;52627;48.838;2.402;2023-03-24T14:30:17;15.85;63.71
65854;DHT22;52627;48.838;2.402;2023-03-24T14:32:57;15.86;63.57
65854;DHT22;52627;48.838;2.402;2023-03-24T14:35:39;15.88;63.39
65854;DHT22;52627;48.838;2.402;2023-03-24T14:40:42;15.99;63.07
65854;DHT22;52627;48.838;2.402;2023-03-24T14:46:01;16.15;62.32
65854;DHT22;52627;48.838;2.402;2023-03-24T14:48:33;16.21;61.64
65854;DHT22;52627;48.838;2.402;2023-03-24T14:51:34;16.27;61.42
65854;DHT22;52627;48.838;2.402;2023-03-24T14:54:18;16.33;60.86
65854;DHT22;52627;48.838;2.402;2023-03-24T14:57:03;16.38;60.42
65854;DHT22;52627;48.838;2.402;2023-03-24T15:02:15;16.48;59.62
65854;DHT22;52627;48.838;2.402;2023-03-24T15:07:40;16.47;58.05
65854;DHT22;52627;48.838;2.402;2023-03-24T15:10:18;16.48;57.92
65854;DHT22;52627;48.838;2.402;2023-03-24T15:12:46;16.48;57.75
65854;DHT22;52627;48.838;2.402;2023-03-24T15:15:21;16.50;57.57
65854;DHT22;52627;48.838;2.402;2023-03-24T15:17:50;16.49;57.35
65854;DHT22;52627;48.838;2.402;2023-03-24T15:20:22;16.47;57.15
65854;DHT22;52627;48.838;2.402;2023-03-24T15:22:53;16.49;56.97
65854;DHT22;52627;48.838;2.402;2023-03-24T15:25:25;16.52;56.54
65854;DHT22;52627;48.838;2.402;2023-03-24T15:27:55;16.58;56.27
65854;DHT22;52627;48.838;2.402;2023-03-24T15:30:24;16.63;56.00
65854;DHT22;52627;48.838;2.402;2023-03-24T15:32:52;16.69;55.72
65854;DHT22;52627;48.838;2.402;2023-03-24T15:35:21;16.77;55.35
65854;DHT22;52627;48.838;2.402;2023-03-24T15:37:51;16.74;54.67
65854;DHT22;52627;48.838;2.402;2023-03-24T15:42:53;16.60;54.31
65854;DHT22;52627;48.838;2.402;2023-03-24T15:45:27;16.52;53.63
65854;DHT22;52627;48.838;2.402;2023-03-24T15:48:06;16.46;53.47
65854;DHT22;52627;48.838;2.402;2023-03-24T15:50:40;16.40;53.30
65854;DHT22;52627;48.838;2.402;2023-03-24T15:58:56;16.37;53.15
65854;DHT22;52627;48.838;2.402;2023-03-24T16:01:41;16.35;53.31
65854;DHT22;52627;48.838;2.402;2023-03-24T16:04:15;16.29;53.37
65854;DHT22;52627;48.838;2.402;2023-03-24T16:06:47;16.22;53.42
65854;DHT22;52627;48.838;2.402;2023-03-24T16:09:20;16.11;53.61
65854;DHT22;52627;48.838;2.402;2023-03-24T16:11:53;16.01;53.92
65854;DHT22;52627;48.838;2.402;2023-03-24T16:14:22;15.93;54.57
65854;DHT22;52627;48.838;2.402;2023-03-24T16:16:55;15.84;55.41
65854;DHT22;52627;48.838;2.402;2023-03-24T16:19:26;15.69;56.21
65854;DHT22;52627;48.838;2.402;2023-03-24T16:21:54;15.56;56.93
65854;DHT22;52627;48.838;2.402;2023-03-24T16:24:22;15.39;57.95
65854;DHT22;52627;48.838;2.402;2023-03-24T16:26:49;15.27;58.14
65854;DHT22;52627;48.838;2.402;2023-03-24T16:29:18;15.19;60.29
65854;DHT22;52627;48.838;2.402;2023-03-24T16:31:51;14.97;62.56
65854;DHT22;52627;48.838;2.402;2023-03-24T16:34:22;14.72;63.69
65854;DHT22;52627;48.838;2.402;2023-03-24T16:36:50;14.55;64.17
65854;DHT22;52627;48.838;2.402;2023-03-24T16:39:21;14.45;64.39
65854;DHT22;52627;48.838;2.402;2023-03-24T16:41:52;14.39;64.83
65854;DHT22;52627;48.838;2.402;2023-03-24T16:44:20;14.39;64.74
65854;DHT22;52627;48.838;2.402;2023-03-24T16:46:49;14.42;64.64
65854;DHT22;52627;48.838;2.402;2023-03-24T16:49:20;14.49;64.08
65854;DHT22;52627;48.838;2.402;2023-03-24T16:51:49;14.55;63.66
65854;DHT22;52627;48.838;2.402;2023-03-24T16:54:17;14.61;63.33
65854;DHT22;52627;48.838;2.402;2023-03-24T16:56:45;14.66;63.21
65854;DHT22;52627;48.838;2.402;2023-03-24T16:59:13;14.69;63.18
65854;DHT22;52627;48.838;2.402;2023-03-24T17:01:42;14.72;63.01
65854;DHT22;52627;48.838;2.402;2023-03-24T17:06:44;14.71;62.96
65854;DHT22;52627;48.838;2.402;2023-03-24T17:09:19;14.69;62.94
65854;DHT22;52627;48.838;2.402;2023-03-24T17:11:54;14.67;62.90
65854;DHT22;52627;48.838;2.402;2023-03-24T17:14:24;14.66;62.90
65854;DHT22;52627;48.838;2.402;2023-03-24T17:16:51;14.64;62.95
65854;DHT22;52627;48.838;2.402;2023-03-24T17:19:21;14.63;62.90
65854;DHT22;52627;48.838;2.402;2023-03-24T17:22:00;14.61;62.73
65854;DHT22;52627;48.838;2.402;2023-03-24T17:24:31;14.60;62.73
65854;DHT22;52627;48.838;2.402;2023-03-24T17:27:02;14.54;63.03
65854;DHT22;52627;48.838;2.402;2023-03-24T17:29:35;14.38;62.48
65854;DHT22;52627;48.838;2.402;2023-03-24T17:32:02;14.23;62.33
65854;DHT22;52627;48.838;2.402;2023-03-24T17:34:30;14.07;61.99
65854;DHT22;52627;48.838;2.402;2023-03-24T17:36:57;13.91;62.18
65854;DHT22;52627;48.838;2.402;2023-03-24T17:39:25;13.79;62.51
65854;DHT22;52627;48.838;2.402;2023-03-24T17:41:52;13.69;62.50
65854;DHT22;52627;48.838;2.402;2023-03-24T17:44:23;13.60;62.80
65854;DHT22;52627;48.838;2.402;2023-03-24T17:46:50;13.52;62.89
65854;DHT22;52627;48.838;2.402;2023-03-24T17:49:18;13.41;63.16
65854;DHT22;52627;48.838;2.402;2023-03-24T17:51:45;13.31;63.41
65854;DHT22;52627;48.838;2.402;2023-03-24T17:54:13;13.23;63.69
65854;DHT22;52627;48.838;2.402;2023-03-24T17:56:42;13.11;63.72
65854;DHT22;52627;48.838;2.402;2023-03-24T17:59:10;13.02;63.88
65854;DHT22;52627;48.838;2.402;2023-03-24T18:01:37;12.92;63.96
65854;DHT22;52627;48.838;2.402;2023-03-24T18:04:05;12.85;63.98
65854;DHT22;52627;48.838;2.402;2023-03-24T18:06:33;12.76;63.95
65854;DHT22;52627;48.838;2.402;2023-03-24T18:09:01;12.69;63.92
65854;DHT22;52627;48.838;2.402;2023-03-24T18:11:28;12.63;63.86
65854;DHT22;52627;48.838;2.402;2023-03-24T18:13:56;12.58;63.80
65854;DHT22;52627;48.838;2.402;2023-03-24T18:16:23;12.54;63.79
65854;DHT22;52627;48.838;2.402;2023-03-24T18:18:52;12.49;63.68
65854;DHT22;52627;48.838;2.402;2023-03-24T18:21:20;12.46;63.73
65854;DHT22;52627;48.838;2.402;2023-03-24T18:23:48;12.45;63.77
65854;DHT22;52627;48.838;2.402;2023-03-24T18:26:16;12.43;63.70
65854;DHT22;52627;48.838;2.402;2023-03-24T18:28:44;12.41;63.68
65854;DHT22;52627;48.838;2.402;2023-03-24T18:31:16;12.40;63.72
65854;DHT22;52627;48.838;2.402;2023-03-24T18:33:48;12.38;63.62
65854;DHT22;52627;48.838;2.402;2023-03-24T18:36:18;12.36;63.57